createdAt,value
2018-02-25T00:00:47.356Z,28.40
2018-02-25T00:03:14.788Z,28.40
2018-02-25T00:05:43.022Z,28.50
2018-02-25T00:08:10.453Z,28.40
2018-02-25T00:10:37.879Z,28.50
2018-02-25T00:13:06.080Z,28.70
2018-02-25T00:15:33.512Z,28.60
2018-02-25T00:18:01.705Z,28.80
2018-02-25T00:20:29.147Z,28.80
2018-02-25T00:22:57.346Z,28.60
2018-02-25T00:25:24.779Z,28.70
2018-02-25T00:27:52.973Z,28.40
2018-02-25T00:30:20.408Z,28.40
2018-02-25T00:32:48.606Z,28.40
2018-02-25T00:35:16.041Z,28.40
2018-02-25T00:37:43.480Z,28.60
2018-02-25T00:40:11.672Z,28.70
2018-02-25T00:42:39.864Z,28.90
2018-02-25T00:45:07.309Z,28.80
2018-02-25T00:47:34.724Z,28.60
2018-02-25T00:50:02.172Z,28.80
2018-02-25T00:52:29.608Z,28.80
2018-02-25T00:54:57.039Z,28.90
2018-02-25T00:57:24.470Z,28.60
2018-02-25T00:59:52.668Z,28.60
2018-02-25T01:02:20.119Z,28.60
2018-02-25T01:04:47.558Z,28.70
2018-02-25T01:07:15.756Z,28.60
2018-02-25T01:09:43.252Z,28.60
2018-02-25T01:12:10.712Z,28.90
2018-02-25T01:14:38.143Z,28.90
2018-02-25T01:17:05.566Z,28.90
2018-02-25T01:19:33.772Z,28.60
2018-02-25T01:22:01.202Z,28.50
2018-02-25T01:24:29.398Z,28.90
2018-02-25T01:26:56.840Z,28.90
2018-02-25T01:29:24.275Z,28.90
2018-02-25T01:31:52.472Z,28.80
2018-02-25T01:34:19.903Z,28.80
2018-02-25T01:36:48.108Z,29.00
2018-02-25T01:39:15.576Z,28.90
2018-02-25T01:41:43.008Z,29.00
2018-02-25T01:44:11.524Z,28.80
2018-02-25T01:46:38.968Z,28.90
2018-02-25T01:49:06.399Z,28.70
2018-02-25T01:51:34.626Z,28.70
2018-02-25T01:54:02.060Z,28.70
2018-02-25T01:56:29.540Z,28.80
2018-02-25T01:58:57.034Z,28.80
2018-02-25T02:01:24.457Z,28.80
2018-02-25T02:03:51.917Z,28.60
2018-02-25T02:06:19.466Z,28.60
2018-02-25T02:08:46.909Z,28.60
2018-02-25T02:11:14.391Z,28.80
2018-02-25T02:13:41.803Z,28.60
2018-02-25T02:16:09.237Z,28.80
2018-02-25T02:18:37.440Z,28.50
2018-02-25T02:21:04.940Z,28.50
2018-02-25T02:23:32.380Z,28.80
2018-02-25T02:25:59.867Z,28.70
2018-02-25T02:28:27.291Z,28.90
2018-02-25T02:30:54.728Z,28.80
2018-02-25T02:33:22.161Z,28.50
2018-02-25T02:35:50.372Z,28.80
2018-02-25T02:38:17.808Z,28.60
2018-02-25T02:40:45.240Z,28.80
2018-02-25T02:43:13.447Z,28.80
2018-02-25T02:45:40.871Z,28.80
2018-02-25T02:48:09.075Z,28.80
2018-02-25T02:50:36.506Z,28.80
2018-02-25T02:53:04.763Z,28.80
2018-02-25T02:55:32.191Z,28.80
2018-02-25T02:57:59.637Z,28.90
2018-02-25T03:00:27.074Z,29.00
2018-02-25T03:02:54.520Z,29.10
2018-02-25T03:05:21.964Z,28.90
2018-02-25T03:07:50.163Z,28.90
2018-02-25T03:10:17.652Z,28.90
2018-02-25T03:12:45.076Z,28.90
2018-02-25T03:15:12.506Z,28.90
2018-02-25T03:17:40.749Z,29.10
2018-02-25T03:20:08.179Z,29.10
2018-02-25T03:22:35.651Z,29.20
2018-02-25T03:25:03.120Z,29.20
2018-02-25T03:27:30.551Z,29.20
2018-02-25T03:29:57.984Z,29.00
2018-02-25T03:32:25.556Z,29.30
2018-02-25T03:34:53.145Z,29.00
2018-02-25T03:37:20.599Z,29.10
2018-02-25T03:39:48.056Z,28.90
2018-02-25T03:42:15.484Z,29.00
2018-02-25T03:44:42.922Z,29.20
2018-02-25T03:47:10.419Z,29.20
2018-02-25T03:49:37.875Z,29.30
2018-02-25T03:52:05.345Z,29.20
2018-02-25T03:54:32.792Z,29.20
2018-02-25T03:57:00.226Z,29.20
2018-02-25T03:59:27.651Z,29.20
2018-02-25T04:01:55.884Z,29.20
2018-02-25T04:04:23.314Z,29.20
2018-02-25T04:06:50.880Z,29.30
2018-02-25T04:09:18.320Z,29.20
2018-02-25T04:11:45.763Z,29.40
2018-02-25T04:14:13.196Z,29.30
2018-02-25T04:16:40.724Z,29.50
2018-02-25T04:19:08.152Z,29.20
2018-02-25T04:21:35.589Z,29.50
2018-02-25T04:24:03.807Z,29.40
2018-02-25T04:26:31.243Z,29.30
2018-02-25T04:28:58.727Z,29.40
2018-02-25T04:31:26.183Z,29.20
2018-02-25T04:33:53.635Z,29.20
2018-02-25T04:36:21.076Z,29.10
2018-02-25T04:38:48.551Z,29.10
2018-02-25T04:41:15.984Z,29.20
2018-02-25T04:43:43.429Z,29.20
2018-02-25T04:46:10.867Z,29.20
2018-02-25T04:48:39.092Z,29.20
2018-02-25T04:51:06.528Z,29.20
2018-02-25T04:53:33.974Z,28.90
2018-02-25T04:56:01.408Z,28.90
2018-02-25T04:58:29.644Z,29.10
2018-02-25T05:00:57.100Z,29.10
2018-02-25T05:03:24.565Z,29.00
2018-02-25T05:05:51.996Z,28.90
2018-02-25T05:08:19.442Z,29.00
2018-02-25T05:10:46.872Z,28.90
2018-02-25T05:13:15.105Z,29.20
2018-02-25T05:15:42.532Z,29.20
2018-02-25T05:18:09.963Z,29.00
2018-02-25T05:20:38.192Z,28.70
2018-02-25T05:23:05.658Z,28.60
2018-02-25T05:25:33.094Z,28.70
2018-02-25T05:28:00.532Z,28.80
2018-02-25T05:30:27.964Z,28.80
2018-02-25T05:32:56.177Z,28.40
2018-02-25T05:35:23.653Z,28.40
2018-02-25T05:37:51.124Z,28.60
2018-02-25T05:40:18.548Z,28.70
2018-02-25T05:42:46.016Z,28.60
2018-02-25T05:45:13.456Z,28.50
2018-02-25T05:47:40.893Z,28.50
2018-02-25T05:50:08.329Z,28.60
2018-02-25T05:52:36.535Z,28.70
2018-02-25T05:55:04.013Z,28.60
2018-02-25T05:57:31.467Z,28.60
2018-02-25T05:59:58.918Z,28.60
2018-02-25T06:02:26.364Z,28.40
2018-02-25T06:04:53.818Z,28.40
2018-02-25T06:07:22.044Z,28.50
2018-02-25T06:09:49.576Z,28.20
2018-02-25T06:12:17.135Z,28.50
2018-02-25T06:14:44.809Z,28.90
2018-02-25T06:17:12.239Z,28.20
2018-02-25T06:19:39.688Z,28.30
2018-02-25T06:22:07.172Z,27.90
2018-02-25T06:24:34.637Z,28.00
2018-02-25T06:27:02.075Z,28.00
2018-02-25T06:29:29.516Z,27.90
2018-02-25T06:31:56.947Z,28.00
2018-02-25T06:34:25.167Z,28.10
2018-02-25T06:36:52.610Z,28.10
2018-02-25T06:39:20.046Z,28.20
2018-02-25T06:41:47.507Z,28.20
2018-02-25T06:44:14.936Z,28.30
2018-02-25T06:46:43.173Z,28.20
2018-02-25T06:49:10.627Z,28.20
2018-02-25T06:51:38.183Z,28.20
2018-02-25T06:54:05.661Z,28.00
2018-02-25T06:56:33.204Z,28.20
2018-02-25T06:59:00.663Z,28.10
2018-02-25T07:01:28.092Z,27.90
2018-02-25T07:03:55.528Z,28.00
2018-02-25T07:06:23.031Z,27.90
2018-02-25T07:08:50.502Z,27.90
2018-02-25T07:11:17.943Z,27.90
2018-02-25T07:13:46.115Z,27.90
2018-02-25T07:16:13.591Z,27.80
2018-02-25T07:18:41.028Z,27.90
2018-02-25T07:21:08.465Z,27.80
2018-02-25T07:23:35.893Z,27.90
2018-02-25T07:26:04.105Z,27.90
2018-02-25T07:28:31.532Z,27.90
2018-02-25T07:30:58.964Z,27.90
2018-02-25T07:33:26.402Z,28.10
2018-02-25T07:35:53.843Z,27.60
2018-02-25T07:38:21.308Z,28.00
2018-02-25T07:40:48.837Z,27.90
2018-02-25T07:43:16.266Z,28.20
2018-02-25T07:45:44.490Z,28.00
2018-02-25T07:48:11.952Z,28.00
2018-02-25T07:50:39.379Z,28.00
2018-02-25T07:53:06.971Z,27.90
2018-02-25T07:55:34.420Z,28.00
2018-02-25T07:58:01.867Z,28.30
2018-02-25T08:00:29.364Z,28.10
2018-02-25T08:02:56.740Z,28.20
2018-02-25T08:05:24.964Z,28.10
2018-02-25T08:07:52.407Z,28.10
2018-02-25T08:10:19.892Z,28.10
2018-02-25T08:12:47.311Z,28.20
2018-02-25T08:15:14.747Z,27.90
2018-02-25T08:17:42.247Z,27.80
2018-02-25T08:20:09.700Z,27.90
2018-02-25T08:22:37.137Z,28.10
2018-02-25T08:25:04.620Z,28.20
2018-02-25T08:27:32.067Z,28.30
2018-02-25T08:29:59.539Z,28.00
2018-02-25T08:32:26.972Z,27.80
2018-02-25T08:34:54.448Z,27.60
2018-02-25T08:37:22.011Z,27.50
2018-02-25T08:39:49.451Z,27.10
2018-02-25T08:42:17.452Z,27.10
2018-02-25T08:44:44.992Z,26.90
2018-02-25T08:47:12.443Z,27.10
2018-02-25T08:49:39.881Z,27.10
2018-02-25T08:52:07.312Z,26.70
2018-02-25T08:54:35.516Z,26.40
2018-02-25T08:57:02.972Z,26.40
2018-02-25T08:59:30.405Z,26.20
2018-02-25T09:01:58.598Z,26.30
2018-02-25T09:04:26.081Z,26.30
2018-02-25T09:06:53.533Z,26.10
2018-02-25T09:09:20.979Z,26.00
2018-02-25T09:11:48.451Z,25.90
2018-02-25T09:14:15.904Z,25.80
2018-02-25T09:16:43.364Z,26.00
2018-02-25T09:19:10.819Z,25.60
2018-02-25T09:21:38.268Z,25.80
2018-02-25T09:24:05.744Z,25.70
2018-02-25T09:26:33.296Z,25.30
2018-02-25T09:29:00.752Z,25.30
2018-02-25T09:31:28.195Z,25.40
2018-02-25T09:33:55.623Z,25.30
2018-02-25T09:36:23.129Z,25.20
2018-02-25T09:38:50.564Z,24.80
2018-02-25T09:41:18.008Z,25.00
2018-02-25T09:43:45.429Z,25.00
2018-02-25T09:46:13.641Z,24.90
2018-02-25T09:48:41.087Z,24.90
2018-02-25T09:51:08.520Z,24.80
2018-02-25T09:53:36.713Z,24.60
2018-02-25T09:56:04.147Z,24.60
2018-02-25T09:58:32.360Z,25.00
2018-02-25T10:00:59.936Z,24.50
2018-02-25T10:03:27.368Z,24.50
2018-02-25T10:05:54.800Z,24.20
2018-02-25T10:08:22.997Z,24.30
2018-02-25T10:10:50.427Z,24.30
2018-02-25T10:13:18.627Z,24.00
2018-02-25T10:15:46.057Z,24.00
2018-02-25T10:18:14.272Z,23.80
2018-02-25T10:20:41.708Z,23.80
2018-02-25T10:23:09.134Z,23.60
2018-02-25T10:25:36.667Z,23.20
2018-02-25T10:28:04.094Z,22.30
2018-02-25T10:30:31.539Z,21.40
2018-02-25T10:32:58.968Z,21.40
2018-02-25T10:35:27.264Z,21.00
2018-02-25T10:37:55.457Z,20.60
2018-02-25T10:40:22.925Z,20.60
2018-02-25T10:42:50.347Z,20.60
2018-02-25T10:45:18.536Z,20.30
2018-02-25T10:47:45.992Z,20.30
2018-02-25T10:50:13.427Z,20.50
2018-02-25T10:52:41.648Z,20.20
2018-02-25T10:55:09.090Z,20.20
2018-02-25T10:57:36.512Z,19.80
2018-02-25T11:00:04.715Z,19.80
2018-02-25T11:02:32.161Z,19.80
2018-02-25T11:04:59.583Z,20.10
2018-02-25T11:07:27.061Z,20.20
2018-02-25T11:09:55.275Z,19.60
2018-02-25T11:12:22.705Z,19.60
2018-02-25T11:14:50.136Z,20.10
2018-02-25T11:17:18.851Z,19.60
2018-02-25T11:19:47.061Z,19.50
2018-02-25T11:22:14.496Z,19.50
2018-02-25T11:24:41.939Z,19.90
2018-02-25T11:27:09.371Z,19.70
2018-02-25T11:29:37.567Z,19.20
2018-02-25T11:32:05.016Z,19.20
2018-02-25T11:34:33.205Z,19.30
2018-02-25T11:37:00.642Z,19.30
2018-02-25T11:39:28.836Z,18.90
2018-02-25T11:41:56.262Z,18.80
2018-02-25T11:44:24.460Z,18.80
2018-02-25T11:46:51.910Z,18.80
2018-02-25T11:49:20.101Z,19.20
2018-02-25T11:51:47.531Z,19.20
2018-02-25T11:54:15.723Z,19.10
2018-02-25T11:56:43.151Z,19.10
2018-02-25T11:59:11.344Z,18.90
2018-02-25T12:01:39.543Z,18.90
2018-02-25T12:04:06.975Z,18.90
2018-02-25T12:06:34.407Z,19.20
2018-02-25T12:09:01.839Z,19.40
2018-02-25T12:11:29.266Z,19.40
2018-02-25T12:13:56.724Z,19.20
2018-02-25T12:16:24.200Z,19.30
2018-02-25T12:18:51.627Z,19.50
2018-02-25T12:21:19.063Z,19.00
2018-02-25T12:23:47.243Z,19.00
2018-02-25T12:26:14.677Z,19.00
2018-02-25T12:28:42.097Z,19.10
2018-02-25T12:31:09.536Z,18.90
2018-02-25T12:33:36.952Z,18.90
2018-02-25T12:36:05.155Z,18.80
2018-02-25T12:38:33.227Z,18.70
2018-02-25T12:41:00.755Z,18.60
2018-02-25T12:43:28.952Z,18.40
2018-02-25T12:45:56.385Z,18.40
2018-02-25T12:48:24.610Z,18.50
2018-02-25T12:50:52.029Z,18.50
2018-02-25T12:53:20.229Z,18.70
2018-02-25T12:55:47.651Z,18.60
2018-02-25T12:58:15.861Z,18.70
2018-02-25T13:00:43.285Z,18.70
2018-02-25T13:03:11.490Z,18.90
2018-02-25T13:05:38.921Z,18.80
2018-02-25T13:08:07.113Z,18.60
2018-02-25T13:10:34.548Z,18.50
2018-02-25T13:13:02.742Z,18.20
2018-02-25T13:15:30.189Z,18.20
2018-02-25T13:17:58.390Z,18.60
2018-02-25T13:20:25.831Z,18.60
2018-02-25T13:22:53.268Z,18.60
2018-02-25T13:25:21.476Z,18.50
2018-02-25T13:27:48.902Z,18.50
2018-02-25T13:30:16.340Z,18.60
2018-02-25T13:32:43.785Z,18.60
2018-02-25T13:35:11.220Z,18.70
2018-02-25T13:37:38.671Z,18.60
2018-02-25T13:40:06.106Z,18.60
2018-02-25T13:42:33.530Z,18.50
2018-02-25T13:45:01.744Z,18.40
2018-02-25T13:47:29.193Z,18.40
2018-02-25T13:49:56.646Z,18.70
2018-02-25T13:52:24.064Z,18.70
2018-02-25T13:54:51.503Z,18.30
2018-02-25T13:57:18.944Z,18.40
2018-02-25T13:59:46.384Z,18.40
2018-02-25T14:02:13.842Z,18.60
2018-02-25T14:04:41.269Z,18.70
2018-02-25T14:07:09.457Z,18.60
2018-02-25T14:09:36.885Z,18.60
2018-02-25T14:12:05.112Z,18.80
2018-02-25T14:14:32.552Z,18.80
2018-02-25T14:16:59.991Z,18.80
2018-02-25T14:19:28.183Z,18.60
2018-02-25T14:21:55.610Z,18.50
2018-02-25T14:24:23.814Z,18.60
2018-02-25T14:26:51.240Z,18.60
2018-02-25T14:29:19.431Z,18.40
2018-02-25T14:31:46.868Z,18.40
2018-02-25T14:34:15.083Z,18.40
2018-02-25T14:36:42.507Z,18.40
2018-02-25T14:39:10.707Z,18.30
2018-02-25T14:41:38.132Z,18.30
2018-02-25T14:44:06.328Z,18.60
2018-02-25T14:46:33.751Z,18.60
2018-02-25T14:49:01.951Z,18.30
2018-02-25T14:51:29.379Z,18.30
2018-02-25T14:53:57.588Z,18.30
2018-02-25T14:56:25.020Z,18.30
2018-02-25T14:58:53.240Z,18.10
2018-02-25T15:01:20.672Z,18.00
2018-02-25T15:03:48.101Z,18.40
2018-02-25T15:06:16.303Z,18.60
2018-02-25T15:08:43.737Z,18.50
2018-02-25T15:11:11.933Z,18.40
2018-02-25T15:13:39.357Z,18.40
2018-02-25T15:16:06.792Z,18.40
2018-02-25T15:18:34.217Z,18.60
2018-02-25T15:21:01.643Z,18.50
2018-02-25T15:23:29.934Z,18.50
2018-02-25T15:25:57.364Z,18.50
2018-02-25T15:28:28.048Z,18.40
2018-02-25T15:30:55.659Z,18.70
2018-02-25T15:33:24.957Z,18.70
2018-02-25T15:35:52.436Z,18.70
2018-02-25T15:38:19.866Z,18.60
2018-02-25T15:40:47.291Z,18.90
2018-02-25T15:43:14.717Z,18.80
2018-02-25T15:45:42.141Z,19.10
2018-02-25T15:48:10.336Z,19.20
2018-02-25T15:50:37.772Z,19.20
2018-02-25T15:53:05.977Z,19.50
2018-02-25T15:55:33.423Z,19.50
2018-02-25T15:58:01.259Z,19.60
2018-02-25T16:00:28.691Z,19.50
2018-02-25T16:02:56.148Z,19.50
2018-02-25T16:05:23.584Z,19.80
2018-02-25T16:07:51.020Z,19.70
2018-02-25T16:10:18.448Z,19.70
2018-02-25T16:12:45.894Z,19.50
2018-02-25T16:15:13.333Z,19.60
2018-02-25T16:17:40.754Z,19.70
2018-02-25T16:20:08.197Z,19.70
2018-02-25T16:22:35.627Z,19.80
2018-02-25T16:25:03.815Z,19.50
2018-02-25T16:27:32.063Z,19.50
2018-02-25T16:29:59.487Z,19.50
2018-02-25T16:32:26.914Z,19.60
2018-02-25T16:34:54.347Z,19.70
2018-02-25T16:37:22.553Z,19.70
2018-02-25T16:39:50.729Z,19.70
2018-02-25T16:42:18.152Z,19.60
2018-02-25T16:44:46.356Z,19.60
2018-02-25T16:47:13.784Z,19.60
2018-02-25T16:49:41.995Z,19.70
2018-02-25T16:52:09.432Z,19.70
2018-02-25T16:54:36.928Z,19.80
2018-02-25T16:57:05.152Z,20.20
2018-02-25T16:59:32.607Z,20.10
2018-02-25T17:02:00.820Z,20.00
2018-02-25T17:04:28.249Z,20.00
2018-02-25T17:06:56.459Z,20.00
2018-02-25T17:09:23.884Z,20.00
2018-02-25T17:11:55.373Z,20.00
2018-02-25T17:14:22.822Z,20.00
2018-02-25T17:16:50.254Z,20.00
2018-02-25T17:19:17.680Z,19.80
2018-02-25T17:21:45.126Z,19.80
2018-02-25T17:24:12.563Z,19.80
2018-02-25T17:26:40.024Z,19.60
2018-02-25T17:29:07.444Z,19.60
2018-02-25T17:31:34.880Z,19.80
2018-02-25T17:34:03.076Z,19.90
2018-02-25T17:36:30.512Z,19.90
2018-02-25T17:38:58.723Z,20.00
2018-02-25T17:41:26.151Z,20.00
2018-02-25T17:43:53.585Z,20.00
2018-02-25T17:46:21.788Z,20.00
2018-02-25T17:48:50.064Z,20.00
2018-02-25T17:51:17.492Z,20.00
2018-02-25T17:53:45.709Z,19.80
2018-02-25T17:56:13.140Z,19.80
2018-02-25T17:58:41.343Z,19.70
2018-02-25T18:01:08.760Z,19.60
2018-02-25T18:03:36.955Z,19.60
2018-02-25T18:06:04.400Z,19.60
2018-02-25T18:08:32.595Z,19.30
2018-02-25T18:11:00.018Z,19.30
2018-02-25T18:13:28.594Z,19.10
2018-02-25T18:15:56.059Z,19.10
2018-02-25T18:18:24.262Z,19.20
2018-02-25T18:20:51.692Z,19.10
2018-02-25T18:23:19.887Z,19.10
2018-02-25T18:25:47.326Z,19.00
2018-02-25T18:28:15.527Z,19.60
2018-02-25T18:30:42.993Z,19.60
2018-02-25T18:33:10.420Z,19.80
2018-02-25T18:35:38.616Z,20.10
2018-02-25T18:38:06.115Z,20.10
2018-02-25T18:40:33.557Z,19.90
2018-02-25T18:43:00.976Z,20.00
2018-02-25T18:45:28.424Z,20.10
2018-02-25T18:47:56.607Z,20.40
2018-02-25T18:50:24.035Z,20.40
2018-02-25T18:52:52.229Z,20.60
2018-02-25T18:55:20.588Z,20.60
2018-02-25T18:57:48.804Z,20.90
2018-02-25T19:00:23.478Z,20.90
2018-02-25T19:02:50.888Z,21.00
2018-02-25T19:05:18.975Z,20.90
2018-02-25T19:07:49.802Z,21.20
2018-02-25T19:10:18.232Z,21.50
2018-02-25T19:12:46.432Z,21.70
2018-02-25T19:15:13.859Z,21.70
2018-02-25T19:17:42.093Z,21.90
2018-02-25T19:20:09.517Z,21.90
2018-02-25T19:22:36.955Z,22.20
2018-02-25T19:25:05.151Z,22.40
2018-02-25T19:27:32.577Z,22.30
2018-02-25T19:30:00.775Z,22.50
2018-02-25T19:32:28.223Z,22.50
2018-02-25T19:34:56.416Z,23.20
2018-02-25T19:37:29.533Z,22.80
2018-02-25T19:40:01.561Z,22.80
2018-02-25T19:42:29.001Z,23.40
2018-02-25T19:44:57.196Z,23.10
2018-02-25T19:47:24.624Z,23.10
2018-02-25T19:49:52.844Z,23.10
2018-02-25T19:52:20.276Z,23.10
2018-02-25T19:54:48.529Z,23.10
2018-02-25T19:57:15.915Z,23.00
2018-02-25T19:59:43.347Z,23.20
2018-02-25T20:02:11.580Z,23.20
2018-02-25T20:04:38.980Z,23.30
2018-02-25T20:07:07.176Z,23.40
2018-02-25T20:09:34.611Z,23.40
2018-02-25T20:12:02.827Z,23.50
2018-02-25T20:14:30.274Z,23.50
2018-02-25T20:16:57.696Z,23.90
2018-02-25T20:19:25.908Z,23.80
2018-02-25T20:21:53.342Z,23.70
2018-02-25T20:24:20.812Z,23.60
2018-02-25T20:26:48.215Z,23.50
2018-02-25T20:29:15.647Z,23.60
2018-02-25T20:31:43.099Z,23.80
2018-02-25T20:34:10.529Z,23.50
2018-02-25T20:36:37.954Z,23.70
2018-02-25T20:39:05.394Z,23.60
2018-02-25T20:41:32.822Z,23.70
2018-02-25T20:44:00.268Z,23.90
2018-02-25T20:46:27.716Z,23.80
2018-02-25T20:48:55.139Z,23.90
2018-02-25T20:51:23.332Z,24.10
2018-02-25T20:53:51.562Z,24.30
2018-02-25T20:56:18.955Z,24.20
2018-02-25T20:58:47.159Z,24.30
2018-02-25T21:01:14.581Z,24.20
2018-02-25T21:03:42.800Z,24.50
2018-02-25T21:06:10.224Z,24.40
2018-02-25T21:08:37.651Z,24.60
2018-02-25T21:11:05.088Z,24.70
2018-02-25T21:13:32.516Z,24.70
2018-02-25T21:15:59.959Z,24.60
2018-02-25T21:18:27.392Z,24.80
2018-02-25T21:20:55.631Z,25.00
2018-02-25T21:23:23.058Z,24.90
2018-02-25T21:25:50.494Z,24.80
2018-02-25T21:28:18.690Z,25.10
2018-02-25T21:30:46.141Z,25.10
2018-02-25T21:33:13.572Z,25.10
2018-02-25T21:35:41.768Z,25.20
2018-02-25T21:38:09.211Z,25.20
2018-02-25T21:40:37.399Z,25.40
2018-02-25T21:43:04.832Z,25.30
2018-02-25T21:45:33.037Z,25.60
2018-02-25T21:48:00.471Z,25.60
2018-02-25T21:50:28.669Z,25.60
2018-02-25T21:52:56.100Z,25.50
2018-02-25T21:55:24.303Z,25.80
2018-02-25T21:57:57.281Z,25.80
2018-02-25T22:00:30.488Z,25.80
2018-02-25T22:03:03.691Z,25.90
2018-02-25T22:05:31.154Z,25.90
2018-02-25T22:07:58.645Z,25.90
2018-02-25T22:10:26.064Z,25.90
2018-02-25T22:12:53.507Z,25.90
2018-02-25T22:15:20.936Z,26.00
2018-02-25T22:17:48.377Z,26.00
2018-02-25T22:20:16.607Z,26.30
2018-02-25T22:22:44.063Z,26.20
2018-02-25T22:25:11.520Z,26.10
2018-02-25T22:27:39.009Z,26.00
2018-02-25T22:30:06.436Z,26.30
2018-02-25T22:32:33.872Z,26.20
2018-02-25T22:35:01.332Z,26.20
2018-02-25T22:37:28.762Z,26.10
2018-02-25T22:39:56.260Z,26.30
2018-02-25T22:42:23.696Z,26.30
2018-02-25T22:44:51.139Z,26.30
2018-02-25T22:47:18.631Z,26.60
2018-02-25T22:49:46.095Z,26.60
2018-02-25T22:52:13.552Z,26.50
2018-02-25T22:54:40.995Z,26.70
2018-02-25T22:57:08.460Z,26.70
2018-02-25T22:59:35.899Z,26.50
2018-02-25T23:02:03.353Z,26.60
2018-02-25T23:04:31.094Z,26.60
2018-02-25T23:06:59.291Z,26.70
2018-02-25T23:09:26.729Z,26.70
2018-02-25T23:11:54.370Z,26.90
2018-02-25T23:14:22.612Z,26.90
2018-02-25T23:16:50.068Z,26.90
2018-02-25T23:19:17.515Z,26.60
2018-02-25T23:21:44.984Z,26.90
2018-02-25T23:24:12.536Z,27.00
2018-02-25T23:26:39.996Z,27.00
2018-02-25T23:29:07.444Z,26.90
2018-02-25T23:31:34.880Z,26.90
2018-02-25T23:34:02.360Z,27.00
2018-02-25T23:36:29.829Z,27.10
2018-02-25T23:38:57.279Z,27.10
2018-02-25T23:41:24.724Z,27.00
2018-02-25T23:43:52.165Z,27.10
2018-02-25T23:46:19.621Z,27.10
2018-02-25T23:48:47.117Z,27.00
2018-02-25T23:51:14.555Z,27.00
2018-02-25T23:53:42.000Z,27.00
2018-02-25T23:56:09.460Z,26.90
2018-02-25T23:58:36.891Z,27.20
